Time;durP1;ratioP1;P1;durP2;ratioP2;P2;SDS_P1;SDS_P2;PMS_P1;PMS_P2;Temp;Humidity;BMP_temperature;BMP_pressure;BME280_temperature;BME280_humidity;BME280_pressure;Samples;Min_cycle;Max_cycle;Signal;HPM_P1;HPM_P2
2023/01/17 00:01:05;;;;;;;7.03;0.60;;;;;;;;;;5065565;28;20055;-71
2023/01/17 00:03:32;;;;;;;3.65;0.60;;;;;;;;;;5066210;28;20524;-69
2023/01/17 00:11:29;;;;;;;2.83;0.90;;;;;;;;;;5065079;28;20529;-72
2023/01/17 00:13:55;;;;;;;3.15;1.20;;;;;;;;;;5066631;28;20110;-72
2023/01/17 00:16:21;;;;;;;6.45;0.75;;;;;;;;;;5066513;28;20052;-70
2023/01/17 00:26:01;;;;;;;7.15;0.80;;;;;;;;;;5062209;28;20141;-73
2023/01/17 01:33:50;;;;;;;3.10;0.60;;;;;;;;;;5064819;28;20049;-72
2023/01/17 01:36:16;;;;;;;0.75;0.55;;;;;;;;;;5064349;28;20057;-69
2023/01/17 01:38:43;;;;;;;3.78;0.50;;;;;;;;;;5065082;28;20048;-69
2023/01/17 01:41:09;;;;;;;2.40;0.30;;;;;;;;;;5062502;28;20446;-73
2023/01/17 01:43:38;;;;;;;7.30;1.20;;;;;;;;;;5062946;28;20053;-72
2023/01/17 01:46:05;;;;;;;8.38;1.02;;;;;;;;;;5065310;28;20103;-71
2023/01/17 01:48:40;;;;;;;2.45;0.45;;;;;;;;;;5064634;28;20122;-72
2023/01/17 01:51:10;;;;;;;3.50;0.52;;;;;;;;;;5054701;28;20057;-70
2023/01/17 01:53:40;;;;;;;4.10;0.55;;;;;;;;;;5065921;28;20057;-71
2023/01/17 01:56:09;;;;;;;1.40;0.60;;;;;;;;;;5064768;28;20056;-68
2023/01/17 01:58:36;;;;;;;5.82;1.45;;;;;;;;;;5064372;28;20056;-70
2023/01/17 02:01:03;;;;;;;2.67;0.57;;;;;;;;;;5064090;28;20088;-71
2023/01/17 02:03:31;;;;;;;9.48;0.73;;;;;;;;;;5063673;28;20049;-67
2023/01/17 02:06:13;;;;;;;1.75;0.52;;;;;;;;;;5065014;28;20050;-68
2023/01/17 02:08:40;;;;;;;2.25;0.45;;;;;;;;;;5066312;28;20541;-69
2023/01/17 02:11:06;;;;;;;1.02;0.60;;;;;;;;;;5063751;28;20538;-70
2023/01/17 02:13:33;;;;;;;5.18;0.73;;;;;;;;;;5064191;28;20051;-72
2023/01/17 02:15:59;;;;;;;1.67;0.68;;;;;;;;;;5062662;28;20508;-72
2023/01/17 02:18:38;;;;;;;1.23;0.65;;;;;;;;;;5064362;28;20060;-72
2023/01/17 02:21:04;;;;;;;6.60;0.50;;;;;;;;;;5064053;28;20045;-71
2023/01/17 02:23:43;;;;;;;4.07;1.15;;;;;;;;;;5063911;28;20257;-68
2023/01/17 02:26:18;;;;;;;0.43;0.40;;;;;;;;;;5062216;28;20065;-71
2023/01/17 02:28:44;;;;;;;2.63;0.50;;;;;;;;;;5063128;28;21633;-71
2023/01/17 02:31:13;;;;;;;0.90;0.50;;;;;;;;;;5064586;28;20148;-71
2023/01/17 02:33:58;;;;;;;0.90;0.50;;;;;;;;;;5065391;28;20145;-68
2023/01/17 02:36:29;;;;;;;0.57;0.40;;;;;;;;;;5061868;28;20506;-69
2023/01/17 02:38:59;;;;;;;7.45;0.95;;;;;;;;;;5078254;28;20292;-71
2023/01/17 02:41:42;;;;;;;3.13;0.93;;;;;;;;;;5062886;28;20527;-71
2023/01/17 02:44:09;;;;;;;3.17;0.82;;;;;;;;;;5064047;28;20053;-68
2023/01/17 02:46:43;;;;;;;3.45;0.70;;;;;;;;;;5062930;28;20471;-70
2023/01/17 02:49:10;;;;;;;6.38;0.95;;;;;;;;;;5045228;28;20067;-72
2023/01/17 02:51:51;;;;;;;4.03;0.85;;;;;;;;;;5063959;28;20160;-69
2023/01/17 02:54:27;;;;;;;5.78;1.27;;;;;;;;;;5063348;28;20051;-70
2023/01/17 02:57:05;;;;;;;7.45;1.05;;;;;;;;;;5064114;28;20118;-71
2023/01/17 02:59:50;;;;;;;4.65;0.80;;;;;;;;;;5063746;28;20599;-68
2023/01/17 03:02:17;;;;;;;1.80;0.80;;;;;;;;;;5062703;28;20549;-72
2023/01/17 03:04:47;;;;;;;3.70;1.02;;;;;;;;;;5057780;28;20901;-71
2023/01/17 03:07:16;;;;;;;1.55;0.75;;;;;;;;;;5042310;28;20049;-72
2023/01/17 03:09:47;;;;;;;0.90;0.43;;;;;;;;;;5043610;28;20060;-68
2023/01/17 03:12:13;;;;;;;6.97;0.95;;;;;;;;;;5054941;28;20646;-71
2023/01/17 03:14:40;;;;;;;1.60;0.70;;;;;;;;;;5062624;28;20049;-68
2023/01/17 03:17:07;;;;;;;4.63;1.05;;;;;;;;;;5063704;28;20425;-71
2023/01/17 03:19:34;;;;;;;6.60;1.10;;;;;;;;;;5064120;28;20096;-71
2023/01/17 03:22:00;;;;;;;5.13;0.70;;;;;;;;;;5065664;28;20091;-70
2023/01/17 03:24:26;;;;;;;4.45;0.77;;;;;;;;;;5060672;28;20049;-74
2023/01/17 03:26:53;;;;;;;3.13;0.65;;;;;;;;;;5066841;28;20295;-73
2023/01/17 03:29:19;;;;;;;2.50;0.68;;;;;;;;;;5066573;28;20053;-71
2023/01/17 03:31:45;;;;;;;4.05;1.15;;;;;;;;;;5063558;28;20053;-72
2023/01/17 03:34:11;;;;;;;5.40;0.70;;;;;;;;;;5059807;28;20053;-70
2023/01/17 03:36:38;;;;;;;3.45;0.80;;;;;;;;;;5067020;28;20052;-70
2023/01/17 03:39:04;;;;;;;6.20;0.80;;;;;;;;;;5066495;28;20178;-71
2023/01/17 03:41:31;;;;;;;3.47;0.55;;;;;;;;;;5065597;28;20053;-69
2023/01/17 03:43:57;;;;;;;6.60;1.25;;;;;;;;;;5064609;28;20057;-68
2023/01/17 03:46:24;;;;;;;5.60;0.75;;;;;;;;;;5066851;28;20059;-72
2023/01/17 03:48:51;;;;;;;0.90;0.47;;;;;;;;;;5063038;28;20147;-73
2023/01/17 03:51:17;;;;;;;3.42;0.57;;;;;;;;;;5066770;28;20111;-72
2023/01/17 03:53:45;;;;;;;6.20;0.52;;;;;;;;;;5065194;28;20048;-69
2023/01/17 03:56:12;;;;;;;1.90;0.75;;;;;;;;;;5065892;28;20045;-72
2023/01/17 03:58:39;;;;;;;4.10;0.90;;;;;;;;;;5066599;28;20522;-71
2023/01/17 04:01:06;;;;;;;7.65;1.85;;;;;;;;;;5064442;28;20048;-68
2023/01/17 04:03:32;;;;;;;4.82;0.75;;;;;;;;;;5066373;28;20354;-72
2023/01/17 04:05:58;;;;;;;2.20;0.50;;;;;;;;;;5064535;28;20526;-71
2023/01/17 04:08:25;;;;;;;2.97;0.55;;;;;;;;;;5064735;28;20057;-68
2023/01/17 04:10:51;;;;;;;3.50;0.88;;;;;;;;;;5064468;28;20132;-72
2023/01/17 04:13:18;;;;;;;4.97;0.90;;;;;;;;;;5066180;28;20044;-71
2023/01/17 04:15:44;;;;;;;5.38;0.90;;;;;;;;;;5065251;28;20053;-70
2023/01/17 04:18:11;;;;;;;5.95;1.17;;;;;;;;;;5066215;28;20400;-72
2023/01/17 04:20:39;;;;;;;5.97;0.63;;;;;;;;;;5067366;28;20061;-72
2023/01/17 04:23:05;;;;;;;5.13;0.52;;;;;;;;;;5066976;28;20429;-72
2023/01/17 04:25:32;;;;;;;3.20;0.63;;;;;;;;;;5066543;28;20110;-71
2023/01/17 04:27:59;;;;;;;6.47;0.85;;;;;;;;;;5068055;28;20550;-71
2023/01/17 04:30:26;;;;;;;1.77;0.43;;;;;;;;;;5067041;28;20064;-72
2023/01/17 04:32:53;;;;;;;13.27;1.05;;;;;;;;;;5063744;28;20064;-69
2023/01/17 04:35:19;;;;;;;10.70;1.08;;;;;;;;;;5063767;28;20438;-72
2023/01/17 04:37:46;;;;;;;4.05;0.70;;;;;;;;;;5063019;28;20087;-70
2023/01/17 04:40:13;;;;;;;8.25;0.95;;;;;;;;;;5066539;28;20140;-68
2023/01/17 04:42:39;;;;;;;1.95;0.80;;;;;;;;;;5062073;28;20095;-71
2023/01/17 04:45:06;;;;;;;4.95;1.00;;;;;;;;;;5065204;28;20051;-73
2023/01/17 04:47:33;;;;;;;5.30;0.80;;;;;;;;;;5065933;28;20103;-71
2023/01/17 04:49:59;;;;;;;2.67;0.77;;;;;;;;;;5064714;28;20160;-72
2023/01/17 04:52:25;;;;;;;6.07;0.88;;;;;;;;;;5063759;28;20049;-71
2023/01/17 04:54:52;;;;;;;4.13;1.13;;;;;;;;;;5066203;28;20132;-72
2023/01/17 04:57:18;;;;;;;3.25;1.10;;;;;;;;;;5067490;28;20499;-72
2023/01/17 04:59:45;;;;;;;5.72;0.98;;;;;;;;;;5065748;28;20060;-69
2023/01/17 05:02:12;;;;;;;3.05;0.77;;;;;;;;;;5067010;28;20053;-73
2023/01/17 05:04:39;;;;;;;0.65;0.57;;;;;;;;;;5066613;28;20060;-72
2023/01/17 05:07:06;;;;;;;2.30;0.63;;;;;;;;;;5064128;28;20064;-71
2023/01/17 05:09:32;;;;;;;3.58;0.47;;;;;;;;;;5067922;28;20045;-72
2023/01/17 05:11:58;;;;;;;7.20;0.88;;;;;;;;;;5066426;28;20053;-72
2023/01/17 05:14:25;;;;;;;10.00;0.70;;;;;;;;;;5067153;28;20049;-70
2023/01/17 05:16:55;;;;;;;6.90;0.93;;;;;;;;;;5067444;28;20132;-71
2023/01/17 05:19:22;;;;;;;3.95;0.82;;;;;;;;;;5066127;28;20053;-68
2023/01/17 05:21:48;;;;;;;6.00;0.65;;;;;;;;;;5064943;28;20115;-69
2023/01/17 05:24:15;;;;;;;8.35;1.02;;;;;;;;;;5080347;28;20266;-72
2023/01/17 05:26:42;;;;;;;2.70;0.75;;;;;;;;;;5068087;28;20057;-72
2023/01/17 05:29:08;;;;;;;4.22;0.90;;;;;;;;;;5068548;28;20099;-70
2023/01/17 05:31:35;;;;;;;7.00;0.77;;;;;;;;;;5066299;28;20056;-69
2023/01/17 05:34:02;;;;;;;3.22;0.60;;;;;;;;;;5066612;28;20049;-73
2023/01/17 05:36:28;;;;;;;2.60;0.82;;;;;;;;;;5065428;28;20135;-71
2023/01/17 05:38:55;;;;;;;3.60;0.95;;;;;;;;;;5074163;28;20050;-73
2023/01/17 05:41:21;;;;;;;2.40;0.63;;;;;;;;;;5075077;28;20049;-73
2023/01/17 05:43:47;;;;;;;3.95;0.60;;;;;;;;;;5077472;28;20053;-72
2023/01/17 05:46:14;;;;;;;1.30;0.60;;;;;;;;;;5070419;28;20041;-70
2023/01/17 05:48:41;;;;;;;1.42;0.77;;;;;;;;;;5082424;28;20525;-69
2023/01/17 05:51:08;;;;;;;5.18;0.88;;;;;;;;;;5067767;28;20061;-73
2023/01/17 05:53:34;;;;;;;4.18;0.65;;;;;;;;;;5081500;28;20048;-71
2023/01/17 05:56:00;;;;;;;1.25;0.60;;;;;;;;;;5077130;28;20529;-70
2023/01/17 05:58:26;;;;;;;2.38;0.80;;;;;;;;;;5071691;28;20140;-70
2023/01/17 06:00:54;;;;;;;3.78;1.25;;;;;;;;;;5072177;28;20078;-70
2023/01/17 06:03:20;;;;;;;2.20;0.95;;;;;;;;;;5063115;28;20049;-72
2023/01/17 06:05:46;;;;;;;5.38;0.82;;;;;;;;;;5062304;28;20061;-68
2023/01/17 06:08:13;;;;;;;3.22;0.90;;;;;;;;;;5064229;28;20056;-70
2023/01/17 06:10:39;;;;;;;1.80;0.65;;;;;;;;;;5063724;28;20530;-72
2023/01/17 06:13:07;;;;;;;6.90;1.23;;;;;;;;;;5063378;28;20577;-72
2023/01/17 06:15:34;;;;;;;10.48;1.17;;;;;;;;;;5064467;28;20055;-70
2023/01/17 06:18:04;;;;;;;1.55;1.10;;;;;;;;;;5063751;28;20049;-73
2023/01/17 06:20:32;;;;;;;1.85;0.65;;;;;;;;;;5060858;28;20049;-72
2023/01/17 06:22:59;;;;;;;14.70;1.05;;;;;;;;;;5062096;28;20131;-69
2023/01/17 06:25:25;;;;;;;4.03;0.73;;;;;;;;;;5060113;28;20045;-73
2023/01/17 06:27:54;;;;;;;2.53;0.80;;;;;;;;;;5075021;28;20107;-72
2023/01/17 06:30:20;;;;;;;4.10;0.98;;;;;;;;;;5065144;28;20084;-73
2023/01/17 06:32:53;;;;;;;5.18;0.80;;;;;;;;;;5059018;28;20068;-71
2023/01/17 06:35:19;;;;;;;7.10;1.17;;;;;;;;;;5065551;28;20053;-72
2023/01/17 06:37:49;;;;;;;3.53;1.10;;;;;;;;;;5065626;28;20077;-69
2023/01/17 06:40:15;;;;;;;9.43;1.50;;;;;;;;;;5065442;28;20478;-72
2023/01/17 06:42:41;;;;;;;5.75;1.50;;;;;;;;;;5064866;28;20057;-69
2023/01/17 06:45:08;;;;;;;9.45;1.50;;;;;;;;;;5065627;28;20053;-69
2023/01/17 06:47:38;;;;;;;4.35;1.48;;;;;;;;;;5064928;28;20311;-73
2023/01/17 06:50:05;;;;;;;4.30;1.85;;;;;;;;;;5061841;28;20511;-71
2023/01/17 06:52:32;;;;;;;6.88;2.70;;;;;;;;;;5063355;28;20495;-71
2023/01/17 06:54:58;;;;;;;5.50;1.73;;;;;;;;;;5061805;28;20056;-71
2023/01/17 06:57:25;;;;;;;2.38;1.70;;;;;;;;;;5064339;28;20076;-72
2023/01/17 06:59:52;;;;;;;2.03;1.50;;;;;;;;;;5060559;28;20056;-70
2023/01/17 07:02:18;;;;;;;6.68;2.08;;;;;;;;;;5065754;28;20156;-68
2023/01/17 07:04:44;;;;;;;5.97;2.20;;;;;;;;;;5066974;28;20056;-72
2023/01/17 07:07:11;;;;;;;3.20;2.05;;;;;;;;;;5062058;28;20049;-72
2023/01/17 07:09:38;;;;;;;5.68;2.05;;;;;;;;;;5073138;28;20533;-68
2023/01/17 07:12:04;;;;;;;9.38;2.60;;;;;;;;;;5076997;28;20040;-72
2023/01/17 07:14:30;;;;;;;6.10;2.45;;;;;;;;;;5062099;28;20045;-68
2023/01/17 07:16:57;;;;;;;8.23;2.50;;;;;;;;;;5065611;28;20049;-70
2023/01/17 07:19:23;;;;;;;5.07;2.28;;;;;;;;;;5066973;28;20061;-71
2023/01/17 07:21:51;;;;;;;5.55;2.88;;;;;;;;;;5067678;28;20049;-68
2023/01/17 07:24:18;;;;;;;7.53;2.50;;;;;;;;;;5062591;28;20053;-69
2023/01/17 07:26:48;;;;;;;8.85;2.17;;;;;;;;;;5059769;28;20057;-72
2023/01/17 07:29:14;;;;;;;5.53;2.42;;;;;;;;;;5055743;28;20064;-72
2023/01/17 07:31:40;;;;;;;6.57;3.05;;;;;;;;;;5067149;28;20507;-71
2023/01/17 07:34:07;;;;;;;6.03;2.78;;;;;;;;;;5066341;28;20481;-71
2023/01/17 07:36:33;;;;;;;4.65;2.63;;;;;;;;;;5067196;28;20521;-71
2023/01/17 07:39:00;;;;;;;5.35;3.20;;;;;;;;;;5061604;28;20087;-69
2023/01/17 07:41:26;;;;;;;7.75;2.95;;;;;;;;;;5052268;28;20053;-71
2023/01/17 07:43:52;;;;;;;7.10;3.05;;;;;;;;;;5067388;28;20033;-71
2023/01/17 07:46:22;;;;;;;8.52;3.20;;;;;;;;;;5082457;28;20057;-72
2023/01/17 07:48:48;;;;;;;8.65;2.65;;;;;;;;;;5085730;28;20065;-70
2023/01/17 07:51:16;;;;;;;7.82;2.88;;;;;;;;;;5077652;28;20063;-71
2023/01/17 07:53:42;;;;;;;7.60;3.42;;;;;;;;;;5062433;28;20099;-69
2023/01/17 07:56:09;;;;;;;8.50;4.45;;;;;;;;;;5062387;28;20057;-71
2023/01/17 07:58:35;;;;;;;5.38;3.42;;;;;;;;;;5066626;28;20084;-71
2023/01/17 08:01:03;;;;;;;11.50;4.35;;;;;;;;;;5066747;28;20060;-72
2023/01/17 08:03:31;;;;;;;6.15;3.67;;;;;;;;;;5064628;28;20057;-68
2023/01/17 08:05:58;;;;;;;8.80;3.75;;;;;;;;;;5067066;28;20029;-70
2023/01/17 08:08:24;;;;;;;7.55;4.20;;;;;;;;;;5066283;28;20053;-67
2023/01/17 08:10:50;;;;;;;8.45;3.47;;;;;;;;;;5065386;28;20044;-67
2023/01/17 08:13:16;;;;;;;6.63;3.50;;;;;;;;;;5066330;28;20049;-71
2023/01/17 08:15:43;;;;;;;8.52;2.70;;;;;;;;;;5066538;28;20118;-68
2023/01/17 08:18:09;;;;;;;5.43;2.17;;;;;;;;;;5065728;28;20056;-70
2023/01/17 08:20:35;;;;;;;5.90;1.80;;;;;;;;;;5066707;28;20547;-71
2023/01/17 08:23:02;;;;;;;2.95;2.15;;;;;;;;;;5064765;28;20052;-71
2023/01/17 08:25:28;;;;;;;3.53;2.15;;;;;;;;;;5065725;28;20049;-69
2023/01/17 08:27:55;;;;;;;12.65;2.83;;;;;;;;;;5063859;28;20103;-71
2023/01/17 08:30:22;;;;;;;4.20;2.40;;;;;;;;;;5058149;28;20505;-71
2023/01/17 08:32:49;;;;;;;6.15;2.45;;;;;;;;;;5064675;28;20045;-69
2023/01/17 08:35:15;;;;;;;3.35;2.15;;;;;;;;;;5064466;28;20056;-70
2023/01/17 08:37:41;;;;;;;5.75;3.15;;;;;;;;;;5064165;28;20049;-72
2023/01/17 08:40:09;;;;;;;8.27;2.42;;;;;;;;;;5061889;28;20044;-71
2023/01/17 08:42:38;;;;;;;10.70;2.35;;;;;;;;;;5072830;28;20092;-72
2023/01/17 08:45:05;;;;;;;10.35;3.10;;;;;;;;;;5066618;28;20099;-70
2023/01/17 08:47:32;;;;;;;16.02;2.42;;;;;;;;;;5065231;28;20487;-69
2023/01/17 08:49:59;;;;;;;3.03;1.75;;;;;;;;;;5065948;28;20057;-72
2023/01/17 08:52:27;;;;;;;8.75;2.25;;;;;;;;;;5064460;28;20132;-73
2023/01/17 08:54:53;;;;;;;4.25;1.63;;;;;;;;;;5064968;28;20049;-72
2023/01/17 08:57:20;;;;;;;9.20;1.80;;;;;;;;;;5072029;28;20056;-72
2023/01/17 08:59:46;;;;;;;7.90;2.40;;;;;;;;;;5076747;28;20511;-71
2023/01/17 09:02:14;;;;;;;5.13;1.70;;;;;;;;;;5065137;28;20148;-69
2023/01/17 09:04:44;;;;;;;11.85;2.40;;;;;;;;;;5070650;28;20067;-68
2023/01/17 09:07:10;;;;;;;2.95;1.92;;;;;;;;;;5077288;28;20053;-72
2023/01/17 09:09:36;;;;;;;2.58;1.70;;;;;;;;;;5085400;28;20486;-72
2023/01/17 09:12:03;;;;;;;5.00;1.98;;;;;;;;;;5073155;28;20053;-71
2023/01/17 09:14:29;;;;;;;5.20;1.80;;;;;;;;;;5064311;28;20057;-71
2023/01/17 09:16:55;;;;;;;7.45;2.65;;;;;;;;;;5083551;28;20057;-70
2023/01/17 09:19:22;;;;;;;5.75;2.45;;;;;;;;;;5073574;28;20048;-69
2023/01/17 09:21:48;;;;;;;6.55;2.58;;;;;;;;;;5071429;28;20049;-71
2023/01/17 09:24:14;;;;;;;9.43;1.88;;;;;;;;;;5077894;28;20056;-70
2023/01/17 09:26:41;;;;;;;3.70;1.60;;;;;;;;;;5064291;28;20486;-70
2023/01/17 09:29:07;;;;;;;4.93;1.80;;;;;;;;;;5063050;28;20059;-70
2023/01/17 09:31:33;;;;;;;7.55;1.70;;;;;;;;;;5064799;28;20049;-71
2023/01/17 09:34:00;;;;;;;3.65;1.13;;;;;;;;;;5063448;28;20176;-73
2023/01/17 09:36:27;;;;;;;5.45;1.70;;;;;;;;;;5062286;28;20049;-73
2023/01/17 09:38:54;;;;;;;13.82;4.15;;;;;;;;;;5061778;28;20131;-73
2023/01/17 09:41:21;;;;;;;6.53;2.00;;;;;;;;;;5066808;28;20064;-69
2023/01/17 09:44:10;;;;;;;7.30;2.53;;;;;;;;;;5073713;28;20850;-71
2023/01/17 09:46:37;;;;;;;9.82;2.70;;;;;;;;;;5065014;28;20048;-71
2023/01/17 09:49:07;;;;;;;10.52;3.10;;;;;;;;;;5064980;28;20059;-73
2023/01/17 09:51:34;;;;;;;25.23;12.27;;;;;;;;;;5065258;28;20055;-69
2023/01/17 09:54:01;;;;;;;4.95;3.42;;;;;;;;;;5064606;28;20160;-72
2023/01/17 09:56:35;;;;;;;32.42;17.88;;;;;;;;;;5065274;28;20095;-71
2023/01/17 09:59:16;;;;;;;14.55;4.28;;;;;;;;;;5065060;28;20136;-67
2023/01/17 10:01:56;;;;;;;5.72;2.78;;;;;;;;;;5064774;28;20553;-70
2023/01/17 10:04:38;;;;;;;8.20;1.70;;;;;;;;;;5063560;28;20142;-73
2023/01/17 10:07:23;;;;;;;3.55;2.13;;;;;;;;;;5064868;28;20049;-70
2023/01/17 10:10:08;;;;;;;3.75;1.77;;;;;;;;;;5064330;28;20140;-71
2023/01/17 10:12:40;;;;;;;5.03;3.40;;;;;;;;;;5079451;28;20437;-72
2023/01/17 10:15:25;;;;;;;8.20;2.53;;;;;;;;;;5065275;28;20272;-70
2023/01/17 10:18:10;;;;;;;40.25;28.80;;;;;;;;;;5055695;28;20503;-72
2023/01/17 10:20:54;;;;;;;10.98;7.32;;;;;;;;;;5062733;28;20103;-71
2023/01/17 10:23:39;;;;;;;18.83;9.73;;;;;;;;;;5064642;28;20553;-71
2023/01/17 10:26:19;;;;;;;3.63;2.13;;;;;;;;;;5062212;28;20048;-72
2023/01/17 10:28:48;;;;;;;5.07;1.98;;;;;;;;;;5055691;28;20144;-70
2023/01/17 10:31:14;;;;;;;5.63;2.60;;;;;;;;;;5062924;28;20049;-72
2023/01/17 10:33:49;;;;;;;4.47;1.67;;;;;;;;;;5065305;28;20056;-71
2023/01/17 10:36:36;;;;;;;7.68;2.03;;;;;;;;;;5064102;28;20397;-72
2023/01/17 10:39:11;;;;;;;3.05;2.33;;;;;;;;;;5067804;28;20052;-70
2023/01/17 10:41:43;;;;;;;8.52;2.22;;;;;;;;;;5075247;28;20072;-72
2023/01/17 10:44:28;;;;;;;6.05;2.90;;;;;;;;;;5073177;28;20057;-71
2023/01/17 10:46:54;;;;;;;6.22;2.35;;;;;;;;;;5071723;28;20065;-69
2023/01/17 10:49:25;;;;;;;3.17;1.77;;;;;;;;;;5066791;28;20689;-71
2023/01/17 10:52:10;;;;;;;5.15;2.55;;;;;;;;;;5061953;28;20065;-69
2023/01/17 10:54:43;;;;;;;8.75;3.67;;;;;;;;;;5061785;28;20687;-69
2023/01/17 10:57:14;;;;;;;7.25;2.60;;;;;;;;;;5061172;28;20112;-68
2023/01/17 10:59:40;;;;;;;4.65;3.30;;;;;;;;;;5062031;28;20049;-68
2023/01/17 11:02:21;;;;;;;6.32;2.35;;;;;;;;;;5060279;28;20041;-67
2023/01/17 11:04:50;;;;;;;2.97;2.40;;;;;;;;;;5073980;28;20053;-67
2023/01/17 11:07:18;;;;;;;7.00;3.50;;;;;;;;;;5069376;28;20052;-69
2023/01/17 11:09:46;;;;;;;4.13;2.40;;;;;;;;;;5069142;28;20537;-69
2023/01/17 11:12:18;;;;;;;3.85;3.20;;;;;;;;;;5070217;28;20055;-67
2023/01/17 11:15:02;;;;;;;9.48;4.60;;;;;;;;;;5080634;28;20052;-69
2023/01/17 11:17:29;;;;;;;11.50;3.58;;;;;;;;;;5070013;28;20049;-68
2023/01/17 11:20:13;;;;;;;6.18;3.45;;;;;;;;;;5075684;28;20045;-69
2023/01/17 11:22:41;;;;;;;4.57;3.45;;;;;;;;;;5069543;28;20902;-68
2023/01/17 11:25:17;;;;;;;13.23;3.28;;;;;;;;;;5070066;28;20049;-67
2023/01/17 11:27:56;;;;;;;7.85;4.40;;;;;;;;;;5069512;28;20056;-66
2023/01/17 11:30:28;;;;;;;13.68;6.28;;;;;;;;;;5069771;28;20132;-69
2023/01/17 11:32:58;;;;;;;6.25;3.42;;;;;;;;;;5069697;28;20057;-69
2023/01/17 11:35:27;;;;;;;12.50;4.30;;;;;;;;;;5069364;28;20071;-69
2023/01/17 11:38:04;;;;;;;10.45;3.80;;;;;;;;;;5069564;28;20053;-69
2023/01/17 11:40:39;;;;;;;4.68;3.38;;;;;;;;;;5069461;28;20045;-68
2023/01/17 11:43:13;;;;;;;7.32;4.28;;;;;;;;;;5062866;28;20057;-70
2023/01/17 11:45:39;;;;;;;9.10;4.32;;;;;;;;;;5080718;28;20053;-70
2023/01/17 11:48:12;;;;;;;6.13;3.80;;;;;;;;;;5067213;28;20052;-71
2023/01/17 11:50:40;;;;;;;8.23;4.07;;;;;;;;;;5066055;28;20543;-70
2023/01/17 11:53:14;;;;;;;9.00;3.88;;;;;;;;;;5070332;28;20624;-68
2023/01/17 11:55:59;;;;;;;6.18;3.60;;;;;;;;;;5054951;28;20542;-69
2023/01/17 11:58:27;;;;;;;8.43;4.30;;;;;;;;;;5064759;28;20060;-69
2023/01/17 12:01:13;;;;;;;9.10;3.72;;;;;;;;;;5066120;28;20076;-68
2023/01/17 12:03:49;;;;;;;5.47;3.28;;;;;;;;;;5067507;28;20049;-69
2023/01/17 12:06:19;;;;;;;6.95;3.60;;;;;;;;;;5065610;28;20360;-68
2023/01/17 12:08:52;;;;;;;8.20;3.58;;;;;;;;;;5066384;28;20045;-70
2023/01/17 12:11:18;;;;;;;8.82;3.80;;;;;;;;;;5075315;28;20151;-69
2023/01/17 12:14:00;;;;;;;7.22;3.78;;;;;;;;;;5065244;28;20507;-71
2023/01/17 12:16:51;;;;;;;4.78;3.38;;;;;;;;;;5068380;28;20065;-70
2023/01/17 12:19:17;;;;;;;5.80;2.70;;;;;;;;;;5065302;28;20507;-69
2023/01/17 12:21:53;;;;;;;7.78;3.78;;;;;;;;;;5065192;28;20045;-69
2023/01/17 12:24:34;;;;;;;7.85;2.70;;;;;;;;;;5065293;28;20079;-69
2023/01/17 12:27:13;;;;;;;5.85;2.63;;;;;;;;;;5071242;28;20048;-70
2023/01/17 12:29:47;;;;;;;6.55;2.88;;;;;;;;;;5064949;28;20147;-71
2023/01/17 12:32:25;;;;;;;5.00;2.83;;;;;;;;;;5064386;28;20099;-70
2023/01/17 12:35:01;;;;;;;7.95;2.47;;;;;;;;;;5048918;28;20512;-69
2023/01/17 12:37:29;;;;;;;8.32;2.70;;;;;;;;;;5065380;28;20226;-70
2023/01/17 12:40:15;;;;;;;5.20;3.08;;;;;;;;;;5065294;28;20057;-69
2023/01/17 12:42:45;;;;;;;3.58;2.83;;;;;;;;;;5063494;28;20049;-70
2023/01/17 12:45:19;;;;;;;3.92;2.33;;;;;;;;;;5065576;28;20072;-70
2023/01/17 12:47:47;;;;;;;6.85;2.65;;;;;;;;;;5065163;28;20060;-69
2023/01/17 12:50:14;;;;;;;8.25;2.38;;;;;;;;;;5063739;28;20053;-69
2023/01/17 12:52:43;;;;;;;4.00;2.50;;;;;;;;;;5065831;28;20139;-70
2023/01/17 12:55:13;;;;;;;2.70;1.77;;;;;;;;;;5065399;28;20447;-70
2023/01/17 12:57:41;;;;;;;4.75;2.25;;;;;;;;;;5072699;28;20449;-69
2023/01/17 13:00:12;;;;;;;3.45;2.15;;;;;;;;;;5068283;28;20048;-70
2023/01/17 13:02:46;;;;;;;5.47;1.85;;;;;;;;;;5066109;28;20531;-70
2023/01/17 13:05:16;;;;;;;6.45;1.90;;;;;;;;;;5077847;28;20148;-69
2023/01/17 13:07:54;;;;;;;3.42;1.90;;;;;;;;;;5075326;28;20429;-69
2023/01/17 13:10:24;;;;;;;3.75;1.58;;;;;;;;;;5071194;28;20132;-69
2023/01/17 13:12:53;;;;;;;4.43;1.67;;;;;;;;;;5073434;28;20053;-70
2023/01/17 13:15:22;;;;;;;6.53;1.77;;;;;;;;;;5066050;28;20053;-71
2023/01/17 13:17:49;;;;;;;2.47;1.30;;;;;;;;;;5065426;28;20558;-70
2023/01/17 13:20:16;;;;;;;3.05;1.73;;;;;;;;;;5063625;28;20049;-68
2023/01/17 13:22:43;;;;;;;5.55;1.67;;;;;;;;;;5081345;28;20421;-71
2023/01/17 13:25:42;;;;;;;3.28;1.27;;;;;;;;;;5068056;28;20530;-70
2023/01/17 13:28:26;;;;;;;1.95;1.20;;;;;;;;;;5059724;28;20059;-70
2023/01/17 13:31:00;;;;;;;1.30;1.05;;;;;;;;;;5053625;28;20049;-71
2023/01/17 13:33:45;;;;;;;1.52;1.00;;;;;;;;;;5076164;28;20049;-69
2023/01/17 13:36:14;;;;;;;6.30;1.27;;;;;;;;;;5070907;28;20104;-71
2023/01/17 13:39:04;;;;;;;4.97;1.30;;;;;;;;;;5082802;28;20563;-70
2023/01/17 13:41:37;;;;;;;1.42;0.88;;;;;;;;;;5062363;28;20542;-71
2023/01/17 13:44:23;;;;;;;2.70;1.00;;;;;;;;;;5077565;28;20048;-69
2023/01/17 13:46:52;;;;;;;3.65;2.22;;;;;;;;;;5064823;28;20068;-71
2023/01/17 13:49:20;;;;;;;2.70;1.10;;;;;;;;;;5065382;28;20053;-69
2023/01/17 13:52:04;;;;;;;3.63;1.35;;;;;;;;;;5061577;28;20076;-73
2023/01/17 13:54:31;;;;;;;0.70;0.70;;;;;;;;;;5060720;28;20048;-68
2023/01/17 13:57:40;;;;;;;4.82;1.13;;;;;;;;;;5061554;28;20053;-70
2023/01/17 14:00:20;;;;;;;4.00;1.45;;;;;;;;;;5001736;28;20058;-70
2023/01/17 14:02:47;;;;;;;2.20;1.33;;;;;;;;;;5013581;28;20419;-70
2023/01/17 14:05:19;;;;;;;3.42;1.30;;;;;;;;;;5019807;28;20050;-71
2023/01/17 14:07:57;;;;;;;2.00;1.35;;;;;;;;;;5019873;28;20135;-71
2023/01/17 14:10:33;;;;;;;4.15;1.10;;;;;;;;;;5020695;28;20547;-71
2023/01/17 14:13:00;;;;;;;2.67;0.98;;;;;;;;;;5021819;28;20104;-71
2023/01/17 14:15:28;;;;;;;3.33;1.00;;;;;;;;;;5021076;28;20050;-70
2023/01/17 14:17:56;;;;;;;8.07;1.23;;;;;;;;;;5020973;28;20053;-71
2023/01/17 14:20:26;;;;;;;3.97;1.13;;;;;;;;;;5019598;28;21245;-70
2023/01/17 14:22:57;;;;;;;7.07;1.38;;;;;;;;;;5021537;28;20053;-69
2023/01/17 14:25:26;;;;;;;1.85;1.10;;;;;;;;;;5021676;28;20089;-69
2023/01/17 14:27:58;;;;;;;2.47;1.38;;;;;;;;;;5021304;28;20123;-71
2023/01/17 14:30:32;;;;;;;1.88;1.20;;;;;;;;;;5021980;28;20077;-71
2023/01/17 14:33:03;;;;;;;1.75;1.33;;;;;;;;;;5022537;28;20195;-70
2023/01/17 14:35:33;;;;;;;3.83;1.50;;;;;;;;;;5061011;28;20439;-71
2023/01/17 14:38:04;;;;;;;3.00;1.50;;;;;;;;;;5063895;28;20041;-71
2023/01/17 14:40:32;;;;;;;6.40;1.50;;;;;;;;;;5046836;28;20049;-68
2023/01/17 14:42:59;;;;;;;2.58;1.13;;;;;;;;;;5054226;28;20053;-69
2023/01/17 14:45:27;;;;;;;2.50;1.27;;;;;;;;;;5060489;28;20135;-70
2023/01/17 14:47:55;;;;;;;2.10;1.20;;;;;;;;;;5060890;28;20045;-68
2023/01/17 14:50:23;;;;;;;2.38;1.33;;;;;;;;;;5061199;28;20049;-68
2023/01/17 14:53:08;;;;;;;2.45;1.20;;;;;;;;;;5070992;28;20056;-71
2023/01/17 14:55:35;;;;;;;2.17;1.45;;;;;;;;;;5061451;28;20048;-71
2023/01/17 14:58:01;;;;;;;2.97;1.40;;;;;;;;;;5062134;28;20147;-70
2023/01/17 15:00:28;;;;;;;2.47;1.58;;;;;;;;;;5062347;28;20523;-71
2023/01/17 15:02:55;;;;;;;2.20;1.27;;;;;;;;;;5063629;28;20144;-71
2023/01/17 15:05:24;;;;;;;1.98;1.73;;;;;;;;;;5066699;28;20107;-71
2023/01/17 15:07:51;;;;;;;2.83;1.45;;;;;;;;;;5066885;28;20514;-70
2023/01/17 15:10:22;;;;;;;3.22;2.45;;;;;;;;;;5064688;28;20543;-70
2023/01/17 15:12:51;;;;;;;6.30;2.42;;;;;;;;;;5068272;28;20088;-69
2023/01/17 15:15:40;;;;;;;2.83;1.80;;;;;;;;;;5061349;28;20495;-68
2023/01/17 15:18:13;;;;;;;3.85;1.65;;;;;;;;;;5058994;28;20052;-70
2023/01/17 15:20:49;;;;;;;3.33;1.75;;;;;;;;;;5060638;28;20076;-69
2023/01/17 15:23:17;;;;;;;;;;;;;;;;;;5063383;28;20525;-70
2023/01/17 15:25:45;;;;;;;5.57;1.98;;;;;;;;;;5068276;28;46413;-68
2023/01/17 15:28:12;;;;;;;5.78;1.90;;;;;;;;;;5066182;28;20127;-71
2023/01/17 15:30:58;;;;;;;4.57;2.08;;;;;;;;;;5068765;28;20060;-70
2023/01/17 15:33:25;;;;;;;3.47;1.90;;;;;;;;;;5066918;28;20076;-69
2023/01/17 15:35:58;;;;;;;3.60;1.52;;;;;;;;;;5065177;28;20464;-70
2023/01/17 15:38:25;;;;;;;6.60;2.17;;;;;;;;;;5074385;28;20574;-70
2023/01/17 15:40:51;;;;;;;2.50;1.67;;;;;;;;;;5068510;28;20075;-71
2023/01/17 15:43:19;;;;;;;4.68;1.67;;;;;;;;;;5064000;28;20482;-69
2023/01/17 15:45:54;;;;;;;2.20;1.70;;;;;;;;;;5065911;28;20107;-69
2023/01/17 15:48:40;;;;;;;5.68;1.83;;;;;;;;;;5066674;28;20482;-70
2023/01/17 15:51:08;;;;;;;4.45;1.40;;;;;;;;;;5067228;28;20541;-68
2023/01/17 15:53:36;;;;;;;4.25;1.98;;;;;;;;;;5065416;28;20053;-69
2023/01/17 15:56:26;;;;;;;5.22;2.20;;;;;;;;;;5066718;28;20146;-69
2023/01/17 15:58:52;;;;;;;16.35;5.60;;;;;;;;;;5058790;28;20052;-70
2023/01/17 16:01:25;;;;;;;16.20;8.68;;;;;;;;;;5065547;28;20057;-70
2023/01/17 16:03:55;;;;;;;15.38;8.23;;;;;;;;;;5075066;28;20048;-70
2023/01/17 16:06:34;;;;;;;8.23;5.00;;;;;;;;;;5062534;28;20060;-69
2023/01/17 16:09:00;;;;;;;4.78;2.90;;;;;;;;;;5064572;28;20052;-68
2023/01/17 16:11:28;;;;;;;4.25;2.30;;;;;;;;;;5064323;28;20135;-70
2023/01/17 16:13:54;;;;;;;5.80;2.70;;;;;;;;;;5065048;28;20052;-69
2023/01/17 16:16:22;;;;;;;3.65;2.35;;;;;;;;;;5062658;28;20049;-69
2023/01/17 16:18:54;;;;;;;6.93;2.58;;;;;;;;;;5060952;28;20104;-69